sensor_id;sensor_type;location;lat;lon;timestamp;pressure;altitude;pressure_sealevel;temperature;humidity
82311;BME280;72015;51.330;12.316;2023-12-20T00:02:13;99984.68;;;1.59;69.97
82311;BME280;72015;51.330;12.316;2023-12-20T00:06:37;99983.70;;;1.59;68.92
82311;BME280;72015;51.330;12.316;2023-12-20T00:11:01;99980.91;;;1.60;68.29
82311;BME280;72015;51.330;12.316;2023-12-20T00:15:25;99977.26;;;1.67;68.18
82311;BME280;72015;51.330;12.316;2023-12-20T00:19:49;99972.99;;;1.66;69.07
82311;BME280;72015;51.330;12.316;2023-12-20T00:24:13;99969.39;;;1.59;69.80
82311;BME280;72015;51.330;12.316;2023-12-20T00:28:40;99965.45;;;1.52;69.95
82311;BME280;72015;51.330;12.316;2023-12-20T00:33:01;99961.32;;;1.48;69.82
82311;BME280;72015;51.330;12.316;2023-12-20T00:37:25;99958.91;;;1.44;68.79
82311;BME280;72015;51.330;12.316;2023-12-20T00:41:49;99956.78;;;1.35;70.63
82311;BME280;72015;51.330;12.316;2023-12-20T00:46:13;99952.72;;;1.40;67.89
82311;BME280;72015;51.330;12.316;2023-12-20T00:50:37;99947.79;;;1.40;69.55
82311;BME280;72015;51.330;12.316;2023-12-20T00:55:01;99944.72;;;1.47;68.78
82311;BME280;72015;51.330;12.316;2023-12-20T00:59:25;99942.10;;;1.55;67.48
82311;BME280;72015;51.330;12.316;2023-12-20T01:03:49;99939.00;;;1.60;68.07
82311;BME280;72015;51.330;12.316;2023-12-20T01:08:13;99937.89;;;1.45;70.09
82311;BME280;72015;51.330;12.316;2023-12-20T01:12:37;99935.46;;;1.39;70.39
82311;BME280;72015;51.330;12.316;2023-12-20T01:17:01;99934.64;;;1.28;70.51
82311;BME280;72015;51.330;12.316;2023-12-20T01:21:25;99935.26;;;1.22;70.54
82311;BME280;72015;51.330;12.316;2023-12-20T01:25:49;99931.30;;;1.20;70.02
82311;BME280;72015;51.330;12.316;2023-12-20T01:30:13;99927.68;;;1.20;70.66
82311;BME280;72015;51.330;12.316;2023-12-20T01:34:37;99926.58;;;1.14;71.21
82311;BME280;72015;51.330;12.316;2023-12-20T01:39:01;99921.50;;;1.07;71.19
82311;BME280;72015;51.330;12.316;2023-12-20T01:43:25;99918.41;;;1.01;71.20
82311;BME280;72015;51.330;12.316;2023-12-20T01:47:49;99914.04;;;0.99;70.61
82311;BME280;72015;51.330;12.316;2023-12-20T01:52:13;99909.54;;;1.00;70.99
82311;BME280;72015;51.330;12.316;2023-12-20T01:56:37;99907.15;;;1.00;70.46
82311;BME280;72015;51.330;12.316;2023-12-20T02:01:01;99905.31;;;1.05;70.74
82311;BME280;72015;51.330;12.316;2023-12-20T02:05:25;99905.53;;;1.01;71.54
82311;BME280;72015;51.330;12.316;2023-12-20T02:09:49;99903.27;;;1.06;69.23
82311;BME280;72015;51.330;12.316;2023-12-20T02:14:13;99899.34;;;1.07;70.77
82311;BME280;72015;51.330;12.316;2023-12-20T02:18:37;99894.87;;;1.04;71.30
82311;BME280;72015;51.330;12.316;2023-12-20T02:23:01;99889.15;;;1.17;67.94
82311;BME280;72015;51.330;12.316;2023-12-20T02:27:25;99884.91;;;1.21;68.69
82311;BME280;72015;51.330;12.316;2023-12-20T02:31:49;99878.99;;;1.32;67.72
82311;BME280;72015;51.330;12.316;2023-12-20T02:36:13;99876.81;;;1.39;68.65
82311;BME280;72015;51.330;12.316;2023-12-20T02:40:37;99874.92;;;1.52;67.16
82311;BME280;72015;51.330;12.316;2023-12-20T02:45:01;99872.08;;;1.67;66.85
82311;BME280;72015;51.330;12.316;2023-12-20T02:49:25;99873.22;;;1.67;68.36
82311;BME280;72015;51.330;12.316;2023-12-20T02:53:49;99874.16;;;1.58;69.44
82311;BME280;72015;51.330;12.316;2023-12-20T02:58:13;99873.75;;;1.50;69.65
82311;BME280;72015;51.330;12.316;2023-12-20T03:02:37;99869.89;;;1.47;69.51
82311;BME280;72015;51.330;12.316;2023-12-20T03:07:01;99866.40;;;1.41;69.83
82311;BME280;72015;51.330;12.316;2023-12-20T03:11:27;99861.91;;;1.32;70.30
82311;BME280;72015;51.330;12.316;2023-12-20T03:15:49;99857.26;;;1.38;68.59
82311;BME280;72015;51.330;12.316;2023-12-20T03:20:13;99855.49;;;1.42;68.23
82311;BME280;72015;51.330;12.316;2023-12-20T03:24:37;99851.79;;;1.44;68.34
82311;BME280;72015;51.330;12.316;2023-12-20T03:29:01;99850.58;;;1.57;67.73
82311;BME280;72015;51.330;12.316;2023-12-20T03:33:25;99847.67;;;1.68;67.49
82311;BME280;72015;51.330;12.316;2023-12-20T03:37:49;99846.53;;;1.69;68.05
82311;BME280;72015;51.330;12.316;2023-12-20T03:42:13;99847.60;;;1.68;68.83
82311;BME280;72015;51.330;12.316;2023-12-20T03:46:37;99848.17;;;1.68;68.12
82311;BME280;72015;51.330;12.316;2023-12-20T03:51:01;99849.14;;;1.65;68.74
82311;BME280;72015;51.330;12.316;2023-12-20T03:55:25;99848.88;;;1.60;69.36
82311;BME280;72015;51.330;12.316;2023-12-20T03:59:49;99848.56;;;1.64;68.75
82311;BME280;72015;51.330;12.316;2023-12-20T04:04:13;99850.12;;;1.65;68.94
82311;BME280;72015;51.330;12.316;2023-12-20T04:08:37;99851.46;;;1.69;68.77
82311;BME280;72015;51.330;12.316;2023-12-20T04:13:01;99854.32;;;1.65;69.51
82311;BME280;72015;51.330;12.316;2023-12-20T04:17:25;99855.35;;;1.58;70.01
82311;BME280;72015;51.330;12.316;2023-12-20T04:21:49;99857.64;;;1.55;69.52
82311;BME280;72015;51.330;12.316;2023-12-20T04:26:13;99860.28;;;1.59;68.91
82311;BME280;72015;51.330;12.316;2023-12-20T04:30:37;99863.01;;;1.64;68.34
82311;BME280;72015;51.330;12.316;2023-12-20T04:35:01;99862.89;;;1.71;67.95
82311;BME280;72015;51.330;12.316;2023-12-20T04:39:25;99861.95;;;1.81;67.50
82311;BME280;72015;51.330;12.316;2023-12-20T04:43:49;99860.92;;;1.90;67.13
82311;BME280;72015;51.330;12.316;2023-12-20T04:48:15;99857.98;;;1.95;66.97
82311;BME280;72015;51.330;12.316;2023-12-20T04:52:37;99856.67;;;1.98;67.16
82311;BME280;72015;51.330;12.316;2023-12-20T04:57:01;99856.75;;;1.98;68.07
82311;BME280;72015;51.330;12.316;2023-12-20T05:01:25;99857.42;;;2.00;68.05
82311;BME280;72015;51.330;12.316;2023-12-20T05:05:49;99858.01;;;2.07;66.71
82311;BME280;72015;51.330;12.316;2023-12-20T05:10:13;99862.44;;;2.02;68.71
82311;BME280;72015;51.330;12.316;2023-12-20T05:14:37;99867.85;;;1.96;68.20
82311;BME280;72015;51.330;12.316;2023-12-20T05:19:01;99870.17;;;2.00;67.00
82311;BME280;72015;51.330;12.316;2023-12-20T05:23:25;99873.88;;;2.03;67.28
82311;BME280;72015;51.330;12.316;2023-12-20T05:27:49;99876.25;;;2.13;66.21
82311;BME280;72015;51.330;12.316;2023-12-20T05:32:13;99878.25;;;2.25;65.33
82311;BME280;72015;51.330;12.316;2023-12-20T05:36:37;99880.92;;;2.39;64.53
82311;BME280;72015;51.330;12.316;2023-12-20T05:41:01;99882.21;;;2.52;63.76
82311;BME280;72015;51.330;12.316;2023-12-20T05:45:25;99883.72;;;2.69;63.17
82311;BME280;72015;51.330;12.316;2023-12-20T05:49:49;99887.14;;;2.92;61.86
82311;BME280;72015;51.330;12.316;2023-12-20T05:54:13;99893.23;;;3.12;61.48
82311;BME280;72015;51.330;12.316;2023-12-20T05:58:38;99897.83;;;3.22;61.43
82311;BME280;72015;51.330;12.316;2023-12-20T06:03:01;99901.73;;;3.31;61.49
82311;BME280;72015;51.330;12.316;2023-12-20T06:07:25;99906.00;;;3.38;61.58
82311;BME280;72015;51.330;12.316;2023-12-20T06:11:49;99908.54;;;3.43;61.39
82311;BME280;72015;51.330;12.316;2023-12-20T06:16:13;99909.53;;;3.48;61.20
82311;BME280;72015;51.330;12.316;2023-12-20T06:20:37;99910.82;;;3.62;59.76
82311;BME280;72015;51.330;12.316;2023-12-20T06:25:01;99909.23;;;3.73;59.55
82311;BME280;72015;51.330;12.316;2023-12-20T06:29:25;99910.10;;;3.83;59.62
82311;BME280;72015;51.330;12.316;2023-12-20T06:33:49;99913.17;;;3.87;59.67
82311;BME280;72015;51.330;12.316;2023-12-20T06:38:13;99916.56;;;3.71;61.29
82311;BME280;72015;51.330;12.316;2023-12-20T06:42:37;99918.91;;;3.56;62.05
82311;BME280;72015;51.330;12.316;2023-12-20T06:47:01;99920.17;;;3.41;62.11
82311;BME280;72015;51.330;12.316;2023-12-20T06:51:25;99918.83;;;3.28;62.37
82311;BME280;72015;51.330;12.316;2023-12-20T06:55:49;99916.71;;;3.11;62.96
82311;BME280;72015;51.330;12.316;2023-12-20T07:00:13;99913.98;;;3.05;62.03
82311;BME280;72015;51.330;12.316;2023-12-20T07:04:40;99913.65;;;2.96;62.46
82311;BME280;72015;51.330;12.316;2023-12-20T07:09:01;99913.31;;;2.81;62.47
82311;BME280;72015;51.330;12.316;2023-12-20T07:13:25;99908.78;;;2.77;61.25
82311;BME280;72015;51.330;12.316;2023-12-20T07:17:49;99906.02;;;2.66;60.63
82311;BME280;72015;51.330;12.316;2023-12-20T07:22:13;99904.52;;;2.57;60.22
82311;BME280;72015;51.330;12.316;2023-12-20T07:26:36;99907.17;;;2.42;59.98
82311;BME280;72015;51.330;12.316;2023-12-20T07:31:00;99908.40;;;2.43;58.82
82311;BME280;72015;51.330;12.316;2023-12-20T07:35:24;99914.48;;;2.41;58.97
82311;BME280;72015;51.330;12.316;2023-12-20T07:39:48;99919.36;;;2.47;58.43
82311;BME280;72015;51.330;12.316;2023-12-20T07:44:12;99924.08;;;2.50;58.47
82311;BME280;72015;51.330;12.316;2023-12-20T07:48:37;99926.88;;;2.50;58.52
82311;BME280;72015;51.330;12.316;2023-12-20T07:53:01;99929.24;;;2.48;59.37
82311;BME280;72015;51.330;12.316;2023-12-20T07:57:24;99931.50;;;2.52;58.73
82311;BME280;72015;51.330;12.316;2023-12-20T08:01:48;99933.26;;;2.50;59.47
82311;BME280;72015;51.330;12.316;2023-12-20T08:06:12;99934.95;;;2.50;58.65
82311;BME280;72015;51.330;12.316;2023-12-20T08:10:36;99934.75;;;2.47;59.14
82311;BME280;72015;51.330;12.316;2023-12-20T08:15:01;99931.29;;;2.48;58.02
82311;BME280;72015;51.330;12.316;2023-12-20T08:19:24;99931.70;;;2.49;58.01
82311;BME280;72015;51.330;12.316;2023-12-20T08:23:48;99934.81;;;2.41;59.42
82311;BME280;72015;51.330;12.316;2023-12-20T08:28:12;99937.75;;;2.36;59.26
82311;BME280;72015;51.330;12.316;2023-12-20T08:32:36;99939.87;;;2.32;58.86
82311;BME280;72015;51.330;12.316;2023-12-20T08:37:00;99941.92;;;2.28;59.30
82311;BME280;72015;51.330;12.316;2023-12-20T08:41:24;99944.61;;;2.21;59.42
82311;BME280;72015;51.330;12.316;2023-12-20T08:45:48;99944.47;;;2.25;59.18
82311;BME280;72015;51.330;12.316;2023-12-20T08:50:12;99942.21;;;2.36;58.69
82311;BME280;72015;51.330;12.316;2023-12-20T08:54:36;99943.27;;;2.38;58.80
82311;BME280;72015;51.330;12.316;2023-12-20T08:59:00;99943.41;;;2.29;60.51
82311;BME280;72015;51.330;12.316;2023-12-20T09:03:24;99942.31;;;2.23;60.13
82311;BME280;72015;51.330;12.316;2023-12-20T09:07:48;99940.19;;;2.12;60.51
82311;BME280;72015;51.330;12.316;2023-12-20T09:12:12;99940.16;;;2.06;60.95
82311;BME280;72015;51.330;12.316;2023-12-20T09:16:36;99938.90;;;2.01;60.78
82311;BME280;72015;51.330;12.316;2023-12-20T09:21:00;99936.53;;;2.05;59.79
82311;BME280;72015;51.330;12.316;2023-12-20T09:25:24;99936.33;;;1.98;60.84
82311;BME280;72015;51.330;12.316;2023-12-20T09:29:48;99943.33;;;1.84;61.54
82311;BME280;72015;51.330;12.316;2023-12-20T09:34:14;99938.69;;;1.63;62.51
82311;BME280;72015;51.330;12.316;2023-12-20T09:38:36;99934.55;;;1.58;60.88
82311;BME280;72015;51.330;12.316;2023-12-20T09:43:03;99934.66;;;1.54;61.17
82311;BME280;72015;51.330;12.316;2023-12-20T09:47:24;99932.51;;;1.51;60.80
82311;BME280;72015;51.330;12.316;2023-12-20T09:51:51;99929.88;;;1.50;60.88
82311;BME280;72015;51.330;12.316;2023-12-20T09:56:12;99926.82;;;1.56;59.90
82311;BME280;72015;51.330;12.316;2023-12-20T10:00:36;99922.31;;;1.58;60.25
82311;BME280;72015;51.330;12.316;2023-12-20T10:05:00;99916.53;;;1.68;59.60
82311;BME280;72015;51.330;12.316;2023-12-20T10:09:24;99913.92;;;1.87;57.75
82311;BME280;72015;51.330;12.316;2023-12-20T10:13:49;99910.47;;;2.04;57.58
82311;BME280;72015;51.330;12.316;2023-12-20T10:18:13;99905.94;;;2.16;57.94
82311;BME280;72015;51.330;12.316;2023-12-20T10:22:37;99903.23;;;2.18;58.60
82311;BME280;72015;51.330;12.316;2023-12-20T10:27:01;99901.01;;;2.17;58.08
82311;BME280;72015;51.330;12.316;2023-12-20T10:31:33;99894.34;;;2.18;58.02
82311;BME280;72015;51.330;12.316;2023-12-20T10:35:49;99888.25;;;2.15;57.95
82311;BME280;72015;51.330;12.316;2023-12-20T10:40:13;99885.83;;;2.11;58.09
82311;BME280;72015;51.330;12.316;2023-12-20T10:44:37;99884.58;;;2.08;58.62
82311;BME280;72015;51.330;12.316;2023-12-20T10:49:03;99879.74;;;2.12;57.83
82311;BME280;72015;51.330;12.316;2023-12-20T10:53:25;99869.34;;;2.19;57.34
82311;BME280;72015;51.330;12.316;2023-12-20T10:57:49;99862.77;;;2.16;58.06
82311;BME280;72015;51.330;12.316;2023-12-20T11:02:13;99856.06;;;2.12;57.51
82311;BME280;72015;51.330;12.316;2023-12-20T11:06:47;99851.75;;;2.01;58.58
82311;BME280;72015;51.330;12.316;2023-12-20T11:11:05;99845.51;;;2.03;57.51
82311;BME280;72015;51.330;12.316;2023-12-20T11:15:25;99841.33;;;2.09;56.85
82311;BME280;72015;51.330;12.316;2023-12-20T11:24:13;99842.29;;;1.99;58.50
82311;BME280;72015;51.330;12.316;2023-12-20T11:28:37;99838.81;;;1.93;58.75
82311;BME280;72015;51.330;12.316;2023-12-20T11:33:01;99838.36;;;1.80;59.72
82311;BME280;72015;51.330;12.316;2023-12-20T11:41:49;99823.88;;;1.76;58.32
82311;BME280;72015;51.330;12.316;2023-12-20T11:46:13;99816.60;;;1.85;58.19
82311;BME280;72015;51.330;12.316;2023-12-20T11:50:37;99811.41;;;1.82;58.67
82311;BME280;72015;51.330;12.316;2023-12-20T11:55:01;99804.41;;;1.77;59.25
82311;BME280;72015;51.330;12.316;2023-12-20T11:59:25;99792.81;;;1.77;58.77
82311;BME280;72015;51.330;12.316;2023-12-20T12:03:49;99784.59;;;1.75;58.36
82311;BME280;72015;51.330;12.316;2023-12-20T12:08:13;99773.56;;;1.70;59.06
82311;BME280;72015;51.330;12.316;2023-12-20T12:12:37;99760.66;;;1.68;58.74
82311;BME280;72015;51.330;12.316;2023-12-20T12:17:01;99750.62;;;1.65;58.58
82311;BME280;72015;51.330;12.316;2023-12-20T12:21:25;99742.67;;;1.73;57.57
82311;BME280;72015;51.330;12.316;2023-12-20T12:25:49;99738.73;;;1.77;58.35
82311;BME280;72015;51.330;12.316;2023-12-20T12:30:13;99739.96;;;1.73;58.73
82311;BME280;72015;51.330;12.316;2023-12-20T12:34:37;99738.22;;;1.65;59.03
82311;BME280;72015;51.330;12.316;2023-12-20T12:39:03;99732.97;;;1.71;57.95
82311;BME280;72015;51.330;12.316;2023-12-20T12:43:25;99727.72;;;1.75;58.40
82311;BME280;72015;51.330;12.316;2023-12-20T12:47:49;99724.13;;;1.84;57.43
82311;BME280;72015;51.330;12.316;2023-12-20T12:52:13;99728.75;;;1.95;56.92
82311;BME280;72015;51.330;12.316;2023-12-20T12:56:37;99720.22;;;2.08;56.80
82311;BME280;72015;51.330;12.316;2023-12-20T13:01:01;99717.86;;;2.15;56.64
82311;BME280;72015;51.330;12.316;2023-12-20T13:05:25;99711.78;;;2.28;55.64
82311;BME280;72015;51.330;12.316;2023-12-20T13:09:49;99719.84;;;2.29;56.65
82311;BME280;72015;51.330;12.316;2023-12-20T13:14:13;99715.23;;;2.26;57.67
82311;BME280;72015;51.330;12.316;2023-12-20T13:18:37;99709.39;;;2.29;56.38
82311;BME280;72015;51.330;12.316;2023-12-20T13:23:01;99705.86;;;2.33;56.81
82311;BME280;72015;51.330;12.316;2023-12-20T13:27:25;99705.03;;;2.34;57.58
82311;BME280;72015;51.330;12.316;2023-12-20T13:31:49;99699.60;;;2.45;55.70
82311;BME280;72015;51.330;12.316;2023-12-20T13:36:13;99694.50;;;2.47;56.35
82311;BME280;72015;51.330;12.316;2023-12-20T13:40:37;99685.44;;;2.49;56.67
82311;BME280;72015;51.330;12.316;2023-12-20T13:45:01;99677.91;;;2.53;56.29
82311;BME280;72015;51.330;12.316;2023-12-20T13:49:25;99674.44;;;2.52;56.51
82311;BME280;72015;51.330;12.316;2023-12-20T13:53:49;99679.11;;;2.45;57.42
82311;BME280;72015;51.330;12.316;2023-12-20T13:58:13;99674.92;;;2.42;57.50
82311;BME280;72015;51.330;12.316;2023-12-20T14:02:37;99671.48;;;2.34;58.19
82311;BME280;72015;51.330;12.316;2023-12-20T14:07:01;99666.88;;;2.28;58.11
82311;BME280;72015;51.330;12.316;2023-12-20T14:11:25;99663.84;;;2.23;58.21
82311;BME280;72015;51.330;12.316;2023-12-20T14:15:49;99665.16;;;2.16;58.89
82311;BME280;72015;51.330;12.316;2023-12-20T14:20:13;99668.58;;;2.11;59.18
82311;BME280;72015;51.330;12.316;2023-12-20T14:24:37;99675.23;;;1.96;59.87
82311;BME280;72015;51.330;12.316;2023-12-20T14:29:01;99669.06;;;1.83;60.45
82311;BME280;72015;51.330;12.316;2023-12-20T14:33:25;99673.64;;;1.72;60.89
82311;BME280;72015;51.330;12.316;2023-12-20T14:37:49;99669.36;;;1.69;60.23
82311;BME280;72015;51.330;12.316;2023-12-20T14:42:13;99671.08;;;1.62;60.90
82311;BME280;72015;51.330;12.316;2023-12-20T14:46:37;99671.56;;;1.58;60.68
82311;BME280;72015;51.330;12.316;2023-12-20T14:51:01;99674.27;;;1.57;60.65
82311;BME280;72015;51.330;12.316;2023-12-20T14:55:25;99672.91;;;1.52;61.02
82311;BME280;72015;51.330;12.316;2023-12-20T14:59:49;99676.11;;;1.50;60.64
82311;BME280;72015;51.330;12.316;2023-12-20T15:04:13;99676.89;;;1.55;60.29
82311;BME280;72015;51.330;12.316;2023-12-20T15:08:37;99682.15;;;1.55;60.19
82311;BME280;72015;51.330;12.316;2023-12-20T15:13:01;99685.49;;;1.52;61.33
82311;BME280;72015;51.330;12.316;2023-12-20T15:17:25;99686.70;;;1.47;61.41
82311;BME280;72015;51.330;12.316;2023-12-20T15:21:49;99686.76;;;1.39;62.30
82311;BME280;72015;51.330;12.316;2023-12-20T15:26:13;99682.87;;;1.31;62.53
82311;BME280;72015;51.330;12.316;2023-12-20T15:30:37;99680.97;;;1.25;62.37
82311;BME280;72015;51.330;12.316;2023-12-20T15:35:01;99678.41;;;1.23;62.00
82311;BME280;72015;51.330;12.316;2023-12-20T15:39:25;99679.14;;;1.21;62.13
82311;BME280;72015;51.330;12.316;2023-12-20T15:43:49;99682.34;;;1.20;62.26
82311;BME280;72015;51.330;12.316;2023-12-20T15:48:13;99684.31;;;1.19;62.17
82311;BME280;72015;51.330;12.316;2023-12-20T15:52:37;99685.71;;;1.21;61.85
82311;BME280;72015;51.330;12.316;2023-12-20T15:57:01;99683.50;;;1.22;62.24
82311;BME280;72015;51.330;12.316;2023-12-20T16:01:25;99684.98;;;1.22;62.32
82311;BME280;72015;51.330;12.316;2023-12-20T16:05:49;99684.26;;;1.28;61.53
82311;BME280;72015;51.330;12.316;2023-12-20T16:10:13;99689.76;;;1.28;62.03
82311;BME280;72015;51.330;12.316;2023-12-20T16:14:37;99689.62;;;1.33;61.66
82311;BME280;72015;51.330;12.316;2023-12-20T16:19:01;99689.23;;;1.41;61.20
82311;BME280;72015;51.330;12.316;2023-12-20T16:23:25;99693.02;;;1.44;62.70
82311;BME280;72015;51.330;12.316;2023-12-20T16:27:49;99696.62;;;1.39;64.36
82311;BME280;72015;51.330;12.316;2023-12-20T16:32:13;99699.17;;;1.44;63.31
82311;BME280;72015;51.330;12.316;2023-12-20T16:41:01;99699.66;;;1.57;62.59
82311;BME280;72015;51.330;12.316;2023-12-20T16:45:25;99699.42;;;1.63;62.21
82311;BME280;72015;51.330;12.316;2023-12-20T16:49:49;99696.49;;;1.74;60.98
82311;BME280;72015;51.330;12.316;2023-12-20T16:54:13;99695.68;;;1.90;60.57
82311;BME280;72015;51.330;12.316;2023-12-20T16:58:37;99696.94;;;2.03;59.93
82311;BME280;72015;51.330;12.316;2023-12-20T17:03:01;99698.38;;;2.27;58.65
82311;BME280;72015;51.330;12.316;2023-12-20T17:07:25;99700.85;;;2.55;58.84
82311;BME280;72015;51.330;12.316;2023-12-20T17:11:49;99701.57;;;2.85;59.37
82311;BME280;72015;51.330;12.316;2023-12-20T17:16:13;99701.65;;;3.11;59.17
82311;BME280;72015;51.330;12.316;2023-12-20T17:20:37;99701.10;;;3.33;59.37
82311;BME280;72015;51.330;12.316;2023-12-20T17:25:01;99700.36;;;3.51;59.81
82311;BME280;72015;51.330;12.316;2023-12-20T17:29:25;99699.38;;;3.66;59.74
82311;BME280;72015;51.330;12.316;2023-12-20T17:33:49;99699.64;;;3.75;60.36
82311;BME280;72015;51.330;12.316;2023-12-20T17:38:13;99700.73;;;3.85;60.05
82311;BME280;72015;51.330;12.316;2023-12-20T17:42:37;99701.29;;;3.93;60.04
82311;BME280;72015;51.330;12.316;2023-12-20T17:47:01;99701.86;;;3.94;60.49
82311;BME280;72015;51.330;12.316;2023-12-20T17:51:25;99702.59;;;3.95;60.41
82311;BME280;72015;51.330;12.316;2023-12-20T17:55:49;99702.94;;;3.94;60.70
82311;BME280;72015;51.330;12.316;2023-12-20T18:00:16;99703.67;;;3.94;60.53
82311;BME280;72015;51.330;12.316;2023-12-20T18:04:37;99702.59;;;3.94;60.34
82311;BME280;72015;51.330;12.316;2023-12-20T18:09:01;99702.48;;;4.00;59.95
82311;BME280;72015;51.330;12.316;2023-12-20T18:13:25;99702.29;;;4.03;60.00
82311;BME280;72015;51.330;12.316;2023-12-20T18:17:49;99702.09;;;4.07;59.82
82311;BME280;72015;51.330;12.316;2023-12-20T18:22:13;99702.44;;;4.10;59.78
82311;BME280;72015;51.330;12.316;2023-12-20T18:26:37;99701.60;;;4.11;59.50
82311;BME280;72015;51.330;12.316;2023-12-20T18:31:01;99700.95;;;4.11;59.60
82311;BME280;72015;51.330;12.316;2023-12-20T18:35:25;99700.90;;;4.01;61.49
82311;BME280;72015;51.330;12.316;2023-12-20T18:39:49;99700.19;;;3.81;61.83
82311;BME280;72015;51.330;12.316;2023-12-20T18:44:13;99699.80;;;3.48;62.10
82311;BME280;72015;51.330;12.316;2023-12-20T18:48:37;99700.47;;;3.21;63.12
82311;BME280;72015;51.330;12.316;2023-12-20T18:53:01;99696.66;;;3.05;62.33
82311;BME280;72015;51.330;12.316;2023-12-20T18:57:25;99691.24;;;2.99;61.87
82311;BME280;72015;51.330;12.316;2023-12-20T19:01:49;99686.74;;;2.87;62.10
82311;BME280;72015;51.330;12.316;2023-12-20T19:06:13;99681.81;;;2.86;60.50
82311;BME280;72015;51.330;12.316;2023-12-20T19:10:37;99675.55;;;2.88;60.12
82311;BME280;72015;51.330;12.316;2023-12-20T19:15:01;99669.30;;;2.87;60.29
82311;BME280;72015;51.330;12.316;2023-12-20T19:19:25;99662.84;;;2.95;59.15
82311;BME280;72015;51.330;12.316;2023-12-20T19:23:49;99658.67;;;2.89;60.40
82311;BME280;72015;51.330;12.316;2023-12-20T19:28:13;99653.41;;;2.83;60.11
82311;BME280;72015;51.330;12.316;2023-12-20T19:32:37;99649.56;;;2.79;60.13
82311;BME280;72015;51.330;12.316;2023-12-20T19:37:01;99647.83;;;2.68;62.99
82311;BME280;72015;51.330;12.316;2023-12-20T19:41:25;99642.10;;;2.56;63.06
82311;BME280;72015;51.330;12.316;2023-12-20T19:45:49;99634.87;;;2.37;64.09
82311;BME280;72015;51.330;12.316;2023-12-20T19:50:13;99629.71;;;2.20;64.03
82311;BME280;72015;51.330;12.316;2023-12-20T19:54:37;99625.25;;;2.06;63.42
82311;BME280;72015;51.330;12.316;2023-12-20T19:59:01;99619.08;;;2.01;63.11
82311;BME280;72015;51.330;12.316;2023-12-20T20:03:26;99613.42;;;1.97;62.55
82311;BME280;72015;51.330;12.316;2023-12-20T20:07:50;99609.63;;;1.95;62.79
82311;BME280;72015;51.330;12.316;2023-12-20T20:12:14;99605.52;;;1.92;62.84
82311;BME280;72015;51.330;12.316;2023-12-20T20:16:38;99602.56;;;1.89;62.74
82311;BME280;72015;51.330;12.316;2023-12-20T20:21:02;99598.29;;;1.81;63.64
82311;BME280;72015;51.330;12.316;2023-12-20T20:25:26;99595.40;;;1.75;64.01
82311;BME280;72015;51.330;12.316;2023-12-20T20:29:50;99593.28;;;1.77;62.23
82311;BME280;72015;51.330;12.316;2023-12-20T20:34:14;99592.78;;;1.77;62.53
82311;BME280;72015;51.330;12.316;2023-12-20T20:38:38;99591.06;;;1.75;62.96
82311;BME280;72015;51.330;12.316;2023-12-20T20:43:02;99589.50;;;1.81;61.97
82311;BME280;72015;51.330;12.316;2023-12-20T20:47:26;99586.86;;;1.83;61.94
82311;BME280;72015;51.330;12.316;2023-12-20T20:51:50;99583.00;;;1.87;61.96
82311;BME280;72015;51.330;12.316;2023-12-20T20:56:14;99578.65;;;1.83;62.56
82311;BME280;72015;51.330;12.316;2023-12-20T21:00:38;99572.24;;;1.82;62.97
82311;BME280;72015;51.330;12.316;2023-12-20T21:05:02;99571.17;;;1.75;63.00
82311;BME280;72015;51.330;12.316;2023-12-20T21:09:26;99565.01;;;1.69;62.89
82311;BME280;72015;51.330;12.316;2023-12-20T21:13:50;99561.72;;;1.72;62.38
82311;BME280;72015;51.330;12.316;2023-12-20T21:18:14;99556.70;;;1.80;61.69
82311;BME280;72015;51.330;12.316;2023-12-20T21:22:38;99547.50;;;1.82;62.03
82311;BME280;72015;51.330;12.316;2023-12-20T21:27:02;99536.97;;;1.89;61.21
82311;BME280;72015;51.330;12.316;2023-12-20T21:31:26;99525.62;;;1.90;61.87
82311;BME280;72015;51.330;12.316;2023-12-20T21:35:50;99516.25;;;1.93;61.26
82311;BME280;72015;51.330;12.316;2023-12-20T21:40:14;99506.56;;;1.89;62.38
82311;BME280;72015;51.330;12.316;2023-12-20T21:44:38;99494.56;;;1.88;61.73
82311;BME280;72015;51.330;12.316;2023-12-20T21:49:02;99481.72;;;1.96;60.88
82311;BME280;72015;51.330;12.316;2023-12-20T21:53:26;99469.45;;;2.05;60.81
82311;BME280;72015;51.330;12.316;2023-12-20T21:57:50;99460.08;;;2.04;60.94
82311;BME280;72015;51.330;12.316;2023-12-20T22:02:14;99447.30;;;2.12;59.81
82311;BME280;72015;51.330;12.316;2023-12-20T22:06:38;99435.71;;;2.21;59.57
82311;BME280;72015;51.330;12.316;2023-12-20T22:11:02;99423.74;;;2.30;59.75
82311;BME280;72015;51.330;12.316;2023-12-20T22:15:26;99411.72;;;2.32;59.70
82311;BME280;72015;51.330;12.316;2023-12-20T22:19:50;99400.87;;;2.30;60.22
82311;BME280;72015;51.330;12.316;2023-12-20T22:24:14;99393.70;;;2.34;60.11
82311;BME280;72015;51.330;12.316;2023-12-20T22:28:38;99382.46;;;2.29;60.14
82311;BME280;72015;51.330;12.316;2023-12-20T22:33:02;99373.28;;;2.38;59.23
82311;BME280;72015;51.330;12.316;2023-12-20T22:37:26;99360.67;;;2.41;60.42
82311;BME280;72015;51.330;12.316;2023-12-20T22:41:50;99350.78;;;2.46;59.39
82311;BME280;72015;51.330;12.316;2023-12-20T22:46:14;99339.62;;;2.41;59.79
82311;BME280;72015;51.330;12.316;2023-12-20T22:50:38;99326.37;;;2.41;59.78
82311;BME280;72015;51.330;12.316;2023-12-20T22:55:02;99318.76;;;2.36;60.79
82311;BME280;72015;51.330;12.316;2023-12-20T22:59:26;99310.14;;;2.34;60.12
82311;BME280;72015;51.330;12.316;2023-12-20T23:03:50;99304.16;;;2.31;60.69
82311;BME280;72015;51.330;12.316;2023-12-20T23:08:14;99296.12;;;2.27;60.87
82311;BME280;72015;51.330;12.316;2023-12-20T23:12:38;99291.09;;;2.28;60.46
82311;BME280;72015;51.330;12.316;2023-12-20T23:17:02;99287.84;;;2.24;61.35
82311;BME280;72015;51.330;12.316;2023-12-20T23:21:26;99285.60;;;2.13;61.91
82311;BME280;72015;51.330;12.316;2023-12-20T23:25:50;99280.92;;;2.08;61.36
82311;BME280;72015;51.330;12.316;2023-12-20T23:30:14;99276.87;;;2.11;60.19